createdAt,value
2017-09-19T00:01:27.946Z,16.10
2017-09-19T00:03:53.979Z,17.67
2017-09-19T00:06:19.983Z,16.70
2017-09-19T00:08:46.006Z,18.00
2017-09-19T00:11:12.023Z,16.23
2017-09-19T00:13:38.026Z,18.92
2017-09-19T00:16:04.087Z,16.80
2017-09-19T00:18:30.121Z,16.48
2017-09-19T00:20:56.150Z,16.73
2017-09-19T00:23:22.182Z,16.23
2017-09-19T00:25:48.198Z,17.62
2017-09-19T00:28:14.199Z,15.27
2017-09-19T00:30:40.230Z,15.98
2017-09-19T00:33:06.264Z,16.10
2017-09-19T00:35:32.291Z,14.20
2017-09-19T00:37:58.494Z,15.00
2017-09-19T00:40:24.513Z,17.47
2017-09-19T00:42:51.274Z,16.35
2017-09-19T00:45:17.316Z,14.02
2017-09-19T00:47:44.074Z,13.40
2017-09-19T00:50:10.104Z,13.90
2017-09-19T00:52:36.150Z,15.70
2017-09-19T00:55:02.203Z,13.48
2017-09-19T00:57:28.250Z,14.10
2017-09-19T00:59:55.009Z,14.43
2017-09-19T01:02:21.032Z,14.60
2017-09-19T01:04:47.298Z,15.88
2017-09-19T01:07:13.336Z,13.95
2017-09-19T01:09:39.359Z,15.15
2017-09-19T01:12:05.722Z,13.57
2017-09-19T01:14:31.737Z,14.30
2017-09-19T01:16:58.514Z,15.98
2017-09-19T01:19:24.574Z,15.75
2017-09-19T01:21:50.586Z,14.47
2017-09-19T01:24:17.362Z,17.17
2017-09-19T01:26:44.116Z,13.98
2017-09-19T01:29:10.353Z,14.48
2017-09-19T01:31:36.364Z,16.08
2017-09-19T01:34:02.396Z,14.02
2017-09-19T01:36:28.442Z,16.33
2017-09-19T01:38:54.454Z,15.48
2017-09-19T01:41:20.472Z,16.00
2017-09-19T01:43:46.527Z,14.52
2017-09-19T01:46:12.551Z,13.40
2017-09-19T01:48:38.562Z,15.55
2017-09-19T01:51:04.943Z,14.65
2017-09-19T01:53:30.973Z,14.02
2017-09-19T01:55:57.007Z,17.20
2017-09-19T01:58:23.324Z,14.32
2017-09-19T02:00:49.346Z,16.20
2017-09-19T02:03:15.370Z,19.00
2017-09-19T02:05:41.398Z,14.70
2017-09-19T02:08:07.403Z,13.62
2017-09-19T02:10:33.432Z,15.07
2017-09-19T02:12:59.472Z,14.90
2017-09-19T02:15:25.486Z,16.10
2017-09-19T02:17:51.506Z,15.95
2017-09-19T02:20:17.542Z,15.88
2017-09-19T02:22:43.563Z,14.55
2017-09-19T02:25:09.569Z,15.17
2017-09-19T02:27:35.590Z,18.75
2017-09-19T02:30:01.614Z,16.70
2017-09-19T02:32:27.633Z,15.23
2017-09-19T02:34:53.678Z,21.60
2017-09-19T02:37:19.719Z,16.85
2017-09-19T02:39:45.742Z,18.08
2017-09-19T02:42:11.789Z,15.60
2017-09-19T02:44:37.800Z,17.87
2017-09-19T02:47:03.806Z,19.87
2017-09-19T02:49:29.898Z,17.62
2017-09-19T02:51:55.915Z,18.15
2017-09-19T02:54:21.935Z,17.27
2017-09-19T02:56:48.155Z,18.58
2017-09-19T02:59:14.185Z,18.10
2017-09-19T03:01:40.200Z,18.90
2017-09-19T03:04:06.742Z,21.50
2017-09-19T03:06:32.782Z,19.50
2017-09-19T03:08:58.806Z,18.30
2017-09-19T03:11:25.219Z,18.30
2017-09-19T03:13:51.241Z,20.95
2017-09-19T03:16:17.246Z,19.83
2017-09-19T03:18:43.287Z,20.88
2017-09-19T03:21:09.310Z,19.15
2017-09-19T03:23:35.319Z,20.75
2017-09-19T03:26:01.367Z,19.37
2017-09-19T03:28:27.382Z,23.63
2017-09-19T03:30:53.410Z,18.50
2017-09-19T03:33:19.453Z,18.92
2017-09-19T03:35:45.522Z,21.17
2017-09-19T03:38:11.546Z,18.77
2017-09-19T03:40:37.784Z,22.13
2017-09-19T03:43:03.831Z,20.02
2017-09-19T03:45:29.894Z,19.92
2017-09-19T03:47:55.950Z,22.73
2017-09-19T03:50:21.966Z,23.40
2017-09-19T03:52:47.986Z,22.60
2017-09-19T03:55:14.961Z,21.62
2017-09-19T03:57:40.986Z,22.33
2017-09-19T04:00:07.023Z,24.08
2017-09-19T04:02:33.122Z,24.95
2017-09-19T04:04:59.131Z,24.30
2017-09-19T04:07:25.175Z,22.87
2017-09-19T04:09:51.193Z,26.20
2017-09-19T04:12:17.220Z,24.63
2017-09-19T04:14:43.434Z,23.80
2017-09-19T04:17:09.467Z,24.87
2017-09-19T04:19:35.471Z,25.92
2017-09-19T04:22:01.526Z,27.98
2017-09-19T04:24:27.539Z,26.23
2017-09-19T04:26:53.578Z,28.67
2017-09-19T04:29:19.608Z,27.27
2017-09-19T04:31:45.648Z,25.55
2017-09-19T04:34:12.414Z,23.38
2017-09-19T04:36:39.183Z,24.37
2017-09-19T04:39:05.203Z,27.10
2017-09-19T04:41:31.239Z,26.55
2017-09-19T04:43:57.646Z,26.75
2017-09-19T04:46:23.667Z,26.52
2017-09-19T04:48:49.731Z,27.05
2017-09-19T04:51:16.123Z,27.20
2017-09-19T04:53:42.146Z,26.90
2017-09-19T04:56:08.439Z,26.87
2017-09-19T04:58:35.230Z,28.33
2017-09-19T05:01:01.240Z,25.55
2017-09-19T05:03:27.270Z,27.42
2017-09-19T05:05:53.486Z,26.23
2017-09-19T05:08:19.530Z,26.00
2017-09-19T05:10:45.551Z,27.13
2017-09-19T05:13:12.662Z,26.92
2017-09-19T05:15:38.707Z,28.95
2017-09-19T05:18:04.718Z,28.80
2017-09-19T05:20:30.950Z,29.70
2017-09-19T05:22:56.966Z,28.65
2017-09-19T05:25:22.991Z,29.75
2017-09-19T05:27:49.216Z,28.10
2017-09-19T05:30:15.278Z,28.98
2017-09-19T05:32:41.324Z,26.80
2017-09-19T05:35:07.397Z,30.12
2017-09-19T05:37:33.419Z,31.70
2017-09-19T05:40:06.462Z,29.55
2017-09-19T05:42:33.238Z,30.77
2017-09-19T05:44:59.298Z,32.28
2017-09-19T05:47:25.362Z,36.53
2017-09-19T05:49:52.119Z,35.63
2017-09-19T05:52:18.145Z,32.27
2017-09-19T05:54:44.203Z,35.67
2017-09-19T05:57:10.239Z,35.95
2017-09-19T05:59:36.299Z,37.55
2017-09-19T06:02:02.374Z,38.00
2017-09-19T06:04:28.394Z,35.80
2017-09-19T06:06:54.426Z,35.50
2017-09-19T06:09:30.851Z,36.50
2017-09-19T06:11:56.883Z,41.23
2017-09-19T06:14:22.898Z,39.80
2017-09-19T06:16:48.978Z,40.77
2017-09-19T06:19:15.766Z,39.53
2017-09-19T06:21:41.791Z,41.33
2017-09-19T06:24:08.098Z,39.63
2017-09-19T06:26:34.162Z,40.17
2017-09-19T06:29:00.222Z,43.17
2017-09-19T06:31:27.188Z,45.83
2017-09-19T06:33:53.223Z,51.03
2017-09-19T06:36:19.258Z,55.97
2017-09-19T06:38:45.338Z,55.17
2017-09-19T06:41:12.102Z,58.60
2017-09-19T06:43:38.138Z,61.95
2017-09-19T06:46:04.174Z,61.45
2017-09-19T06:48:30.218Z,64.35
2017-09-19T06:50:56.251Z,63.17
2017-09-19T06:53:23.042Z,60.83
2017-09-19T06:55:49.053Z,68.60
2017-09-19T06:58:15.434Z,65.18
2017-09-19T07:00:41.600Z,63.75
2017-09-19T07:03:07.623Z,64.30
2017-09-19T07:05:33.626Z,62.13
2017-09-19T07:08:00.422Z,65.93
2017-09-19T07:10:26.449Z,63.72
2017-09-19T07:12:52.474Z,61.28
2017-09-19T07:15:18.654Z,66.12
2017-09-19T07:17:44.718Z,63.95
2017-09-19T07:20:10.758Z,65.57
2017-09-19T07:22:36.814Z,67.78
2017-09-19T07:25:02.834Z,66.32
2017-09-19T07:27:28.842Z,66.03
2017-09-19T07:29:55.642Z,67.47
2017-09-19T07:32:21.674Z,69.82
2017-09-19T07:34:47.694Z,70.95
2017-09-19T07:37:13.739Z,69.47
2017-09-19T07:39:40.502Z,67.53
2017-09-19T07:42:06.535Z,66.35
2017-09-19T07:44:32.574Z,62.95
2017-09-19T07:46:58.594Z,65.97
2017-09-19T07:49:24.640Z,66.72
2017-09-19T07:51:50.690Z,68.22
2017-09-19T07:54:16.724Z,66.30
2017-09-19T07:56:43.494Z,65.10
2017-09-19T07:59:09.586Z,68.10
2017-09-19T08:01:36.334Z,68.67
2017-09-19T08:04:03.118Z,70.37
2017-09-19T08:06:29.183Z,68.55
2017-09-19T08:08:55.930Z,68.22
2017-09-19T08:11:22.698Z,69.85
2017-09-19T08:13:48.746Z,72.87
2017-09-19T08:16:14.758Z,68.15
2017-09-19T08:18:40.794Z,68.80
2017-09-19T08:21:07.094Z,64.00
2017-09-19T08:23:33.110Z,66.62
2017-09-19T08:25:59.132Z,60.88
2017-09-19T08:28:25.252Z,69.65
2017-09-19T08:30:51.282Z,66.75
2017-09-19T08:33:17.296Z,65.55
2017-09-19T08:35:43.327Z,64.80
2017-09-19T08:38:09.357Z,63.25
2017-09-19T08:40:35.374Z,64.03
2017-09-19T08:43:01.427Z,63.05
2017-09-19T08:45:27.454Z,59.20
2017-09-19T08:47:53.473Z,65.45
2017-09-19T08:50:19.766Z,61.20
2017-09-19T08:52:45.790Z,58.80
2017-09-19T08:55:11.810Z,59.65
2017-09-19T08:57:38.022Z,59.23
2017-09-19T09:00:04.044Z,57.58
2017-09-19T09:02:30.070Z,54.67
2017-09-19T09:04:56.398Z,54.25
2017-09-19T09:07:22.430Z,55.95
2017-09-19T09:09:48.457Z,57.03
2017-09-19T09:12:14.498Z,49.38
2017-09-19T09:14:40.533Z,48.10
2017-09-19T09:17:06.550Z,49.70
2017-09-19T09:19:32.812Z,45.63
2017-09-19T09:21:59.573Z,47.42
2017-09-19T09:24:26.338Z,48.38
2017-09-19T09:26:52.359Z,44.78
2017-09-19T09:29:18.371Z,44.75
2017-09-19T09:31:44.399Z,42.40
2017-09-19T09:34:10.411Z,46.55
2017-09-19T09:36:36.438Z,46.15
2017-09-19T09:39:02.482Z,44.03
2017-09-19T09:41:28.490Z,46.35
2017-09-19T09:43:54.514Z,44.10
2017-09-19T09:46:20.786Z,44.15
2017-09-19T09:48:46.862Z,44.55
2017-09-19T09:51:12.875Z,45.33
2017-09-19T09:53:38.914Z,40.30
2017-09-19T09:56:04.918Z,43.65
2017-09-19T09:58:30.935Z,41.28
2017-09-19T10:00:56.970Z,35.25
2017-09-19T10:03:22.996Z,31.27
2017-09-19T10:05:49.027Z,33.25
2017-09-19T10:08:15.341Z,32.17
2017-09-19T10:10:41.357Z,34.33
2017-09-19T10:13:07.375Z,30.67
2017-09-19T10:15:33.506Z,30.77
2017-09-19T10:17:59.782Z,29.27
2017-09-19T10:20:25.810Z,27.37
2017-09-19T10:22:52.794Z,27.83
2017-09-19T10:25:18.834Z,27.73
2017-09-19T10:27:44.849Z,28.58
2017-09-19T10:30:11.172Z,27.33
2017-09-19T10:32:37.172Z,27.43
2017-09-19T10:35:03.933Z,25.88
2017-09-19T10:37:29.966Z,24.67
2017-09-19T10:39:55.977Z,24.65
2017-09-19T10:42:21.995Z,27.70
2017-09-19T10:44:48.021Z,31.63
2017-09-19T10:47:14.034Z,28.75
2017-09-19T10:49:40.053Z,30.50
2017-09-19T10:52:06.102Z,35.22
2017-09-19T10:54:32.140Z,33.33
2017-09-19T10:56:58.190Z,36.20
2017-09-19T10:59:24.201Z,33.60
2017-09-19T11:01:50.584Z,34.15
2017-09-19T11:04:17.345Z,32.55
2017-09-19T11:06:43.367Z,33.40
2017-09-19T11:09:09.778Z,34.65
2017-09-19T11:11:35.811Z,34.13
2017-09-19T11:14:08.990Z,31.00
2017-09-19T11:16:35.002Z,31.27
2017-09-19T11:19:01.040Z,30.02
2017-09-19T11:21:27.263Z,28.23
2017-09-19T11:23:53.276Z,28.77
2017-09-19T11:26:19.307Z,30.33
2017-09-19T11:28:45.364Z,28.85
2017-09-19T11:31:11.412Z,29.02
2017-09-19T11:33:37.434Z,27.60
2017-09-19T11:36:03.698Z,32.40
2017-09-19T11:38:29.739Z,28.98
2017-09-19T11:40:55.743Z,31.67
2017-09-19T11:43:22.014Z,29.00
2017-09-19T11:45:48.014Z,26.40
2017-09-19T11:48:14.027Z,24.95
2017-09-19T11:50:40.063Z,22.73
2017-09-19T11:53:06.130Z,25.10
2017-09-19T11:55:32.926Z,22.60
2017-09-19T11:58:00.075Z,25.00
2017-09-19T12:00:26.090Z,22.27
2017-09-19T12:02:52.108Z,24.40
2017-09-19T12:05:18.174Z,24.97
2017-09-19T12:07:44.214Z,19.65
2017-09-19T12:10:10.979Z,22.30
2017-09-19T12:12:37.022Z,21.85
2017-09-19T12:15:03.099Z,25.40
2017-09-19T12:17:29.867Z,23.15
2017-09-19T12:19:56.089Z,22.98
2017-09-19T12:22:22.114Z,22.35
2017-09-19T12:24:48.138Z,20.53
2017-09-19T12:27:14.199Z,22.90
2017-09-19T12:29:40.214Z,20.90
2017-09-19T12:32:06.262Z,18.20
2017-09-19T12:34:32.282Z,19.97
2017-09-19T12:36:58.311Z,17.70
2017-09-19T12:39:24.353Z,21.77
2017-09-19T12:41:51.126Z,19.12
2017-09-19T12:44:17.150Z,16.92
2017-09-19T12:46:43.214Z,15.85
2017-09-19T12:49:09.230Z,14.23
2017-09-19T12:51:35.254Z,15.82
2017-09-19T12:54:02.014Z,17.95
2017-09-19T12:56:28.758Z,20.77
2017-09-19T12:58:55.535Z,19.70
2017-09-19T13:01:21.547Z,19.40
2017-09-19T13:03:47.556Z,19.73
2017-09-19T13:06:13.687Z,21.50
2017-09-19T13:08:39.720Z,19.60
2017-09-19T13:11:05.751Z,19.87
2017-09-19T13:13:31.810Z,21.00
2017-09-19T13:15:57.934Z,22.00
2017-09-19T13:18:23.964Z,21.90
2017-09-19T13:20:50.930Z,22.52
2017-09-19T13:23:16.935Z,21.87
2017-09-19T13:25:43.683Z,18.70
2017-09-19T13:28:10.630Z,18.67
2017-09-19T13:30:37.391Z,16.60
2017-09-19T13:33:15.931Z,31.50
2017-09-19T13:35:41.944Z,170.95
2017-09-19T13:38:08.055Z,76.37
2017-09-19T13:40:34.095Z,41.45
2017-09-19T13:43:00.111Z,17.75
2017-09-19T13:45:26.213Z,11.40
2017-09-19T13:47:52.305Z,12.30
2017-09-19T13:50:19.096Z,9.90
2017-09-19T13:52:45.120Z,10.68
2017-09-19T13:55:11.430Z,11.00
2017-09-19T13:57:37.458Z,9.88
2017-09-19T14:00:03.496Z,12.80
2017-09-19T14:02:29.894Z,13.13
2017-09-19T14:04:55.927Z,14.95
2017-09-19T14:07:21.965Z,14.37
2017-09-19T14:09:48.071Z,15.13
2017-09-19T14:12:14.138Z,12.70
2017-09-19T14:14:40.175Z,12.18
2017-09-19T14:17:06.454Z,12.30
2017-09-19T14:19:32.548Z,10.50
2017-09-19T14:21:59.315Z,8.48
2017-09-19T14:24:25.534Z,7.72
2017-09-19T14:26:51.546Z,9.13
2017-09-19T14:29:17.592Z,7.32
2017-09-19T14:31:43.647Z,8.13
2017-09-19T14:34:09.682Z,9.25
2017-09-19T14:36:35.706Z,9.05
2017-09-19T14:39:02.075Z,9.07
2017-09-19T14:41:28.124Z,7.45
2017-09-19T14:43:54.179Z,8.50
2017-09-19T14:46:20.327Z,8.13
2017-09-19T14:48:47.121Z,7.18
2017-09-19T14:51:13.171Z,7.72
2017-09-19T14:53:39.204Z,5.57
2017-09-19T14:56:05.962Z,3.40
2017-09-19T14:58:31.967Z,5.03
2017-09-19T15:00:58.023Z,6.10
2017-09-19T15:03:24.022Z,7.97
2017-09-19T15:05:50.046Z,8.40
2017-09-19T15:08:16.058Z,8.47
2017-09-19T15:10:42.838Z,6.87
2017-09-19T15:13:09.250Z,8.43
2017-09-19T15:15:35.272Z,8.30
2017-09-19T15:18:01.298Z,9.80
2017-09-19T15:20:27.693Z,10.88
2017-09-19T15:22:54.499Z,10.68
2017-09-19T15:25:20.521Z,10.90
2017-09-19T15:27:46.546Z,9.38
2017-09-19T15:30:12.563Z,10.05
2017-09-19T15:32:38.586Z,10.10
2017-09-19T15:35:04.626Z,10.10
2017-09-19T15:37:30.649Z,9.15
2017-09-19T15:39:56.650Z,10.95
2017-09-19T15:42:22.701Z,10.57
2017-09-19T15:44:48.733Z,15.48
2017-09-19T15:47:15.481Z,15.90
2017-09-19T15:49:42.446Z,16.20
2017-09-19T15:52:08.506Z,14.13
2017-09-19T15:54:34.555Z,9.02
2017-09-19T15:57:01.335Z,8.70
2017-09-19T15:59:27.356Z,5.20
2017-09-19T16:01:53.405Z,5.12
2017-09-19T16:04:19.455Z,3.72
2017-09-19T16:06:45.471Z,3.22
2017-09-19T16:09:11.539Z,4.60
2017-09-19T16:11:37.568Z,2.90
2017-09-19T16:14:03.627Z,4.93
2017-09-19T16:16:29.664Z,5.07
2017-09-19T16:18:55.671Z,2.30
2017-09-19T16:21:22.072Z,3.30
2017-09-19T16:23:48.111Z,3.10
2017-09-19T16:26:14.135Z,2.10
2017-09-19T16:28:40.579Z,2.50
2017-09-19T16:31:06.619Z,3.30
2017-09-19T16:33:32.642Z,2.80
2017-09-19T16:35:58.693Z,2.40
2017-09-19T16:38:24.725Z,3.00
2017-09-19T16:40:50.895Z,4.07
2017-09-19T16:43:16.939Z,3.10
2017-09-19T16:45:43.695Z,2.50
2017-09-19T16:48:10.453Z,4.62
2017-09-19T16:50:37.458Z,2.83
2017-09-19T16:53:03.481Z,2.93
2017-09-19T16:55:30.242Z,4.20
2017-09-19T16:57:56.351Z,4.90
2017-09-19T17:00:22.357Z,7.97
2017-09-19T17:02:48.379Z,5.18
2017-09-19T17:05:14.696Z,7.15
2017-09-19T17:07:40.798Z,5.25
2017-09-19T17:10:06.854Z,5.70
2017-09-19T17:12:32.874Z,3.72
2017-09-19T17:14:59.040Z,4.72
2017-09-19T17:17:25.346Z,5.40
2017-09-19T17:19:51.454Z,4.85
2017-09-19T17:22:18.319Z,4.37
2017-09-19T17:24:44.473Z,5.75
2017-09-19T17:27:10.621Z,5.57
2017-09-19T17:29:36.771Z,5.40
2017-09-19T17:32:03.640Z,7.12
2017-09-19T17:34:29.780Z,5.85
2017-09-19T17:36:55.877Z,5.15
2017-09-19T17:39:22.051Z,9.80
2017-09-19T17:41:48.167Z,4.87
2017-09-19T17:44:14.260Z,4.73
2017-09-19T17:46:40.404Z,5.22
2017-09-19T17:49:06.532Z,5.93
2017-09-19T17:51:32.586Z,4.60
2017-09-19T17:53:58.716Z,5.97
2017-09-19T17:56:25.557Z,4.93
2017-09-19T17:58:52.394Z,5.50
2017-09-19T18:01:18.536Z,5.03
2017-09-19T18:03:45.376Z,6.78
2017-09-19T18:06:12.270Z,5.87
2017-09-19T18:08:38.375Z,6.13
2017-09-19T18:11:04.433Z,6.10
2017-09-19T18:13:30.785Z,7.15
2017-09-19T18:15:57.546Z,5.80
2017-09-19T18:18:24.695Z,7.10
2017-09-19T18:20:50.786Z,6.30
2017-09-19T18:23:16.908Z,7.10
2017-09-19T18:27:12.454Z,5.45
2017-09-19T18:29:38.572Z,6.35
2017-09-19T18:32:05.414Z,7.45
2017-09-19T18:34:31.879Z,3.90
2017-09-19T18:36:57.983Z,4.37
2017-09-19T18:39:24.092Z,5.95
2017-09-19T18:41:51.320Z,4.63
2017-09-19T18:44:17.432Z,5.07
2017-09-19T18:46:43.555Z,3.90
2017-09-19T18:49:11.393Z,5.72
2017-09-19T18:51:37.434Z,5.15
2017-09-19T18:54:03.543Z,6.05
2017-09-19T18:56:29.699Z,7.15
2017-09-19T18:58:55.820Z,4.90
2017-09-19T19:01:22.110Z,5.35
2017-09-19T19:03:48.200Z,8.48
2017-09-19T19:06:14.341Z,4.07
2017-09-19T19:08:40.512Z,5.97
2017-09-19T19:11:06.631Z,4.10
2017-09-19T19:13:32.758Z,4.00
2017-09-19T19:15:58.887Z,5.45
2017-09-19T19:18:25.010Z,5.07
2017-09-19T19:20:51.116Z,4.75
2017-09-19T19:23:17.239Z,5.55
2017-09-19T19:25:43.337Z,6.27
2017-09-19T19:28:09.855Z,4.50
2017-09-19T19:30:35.975Z,6.60
2017-09-19T19:33:02.095Z,7.95
2017-09-19T19:35:28.283Z,8.47
2017-09-19T19:37:54.352Z,5.40
2017-09-19T19:40:20.460Z,4.20
2017-09-19T19:42:46.620Z,4.70
2017-09-19T19:45:12.768Z,3.92
2017-09-19T19:47:38.840Z,4.57
2017-09-19T19:50:05.671Z,6.07
2017-09-19T19:52:32.516Z,3.80
2017-09-19T19:54:58.634Z,5.93
2017-09-19T19:57:25.804Z,5.03
2017-09-19T19:59:51.840Z,4.15
2017-09-19T20:02:17.862Z,5.57
2017-09-19T20:04:43.991Z,4.68
2017-09-19T20:07:10.027Z,7.90
2017-09-19T20:09:36.121Z,4.53
2017-09-19T20:12:02.259Z,4.95
2017-09-19T20:14:28.280Z,3.78
2017-09-19T20:16:54.368Z,5.18
2017-09-19T20:19:21.224Z,6.07
2017-09-19T20:21:47.283Z,7.12
2017-09-19T20:24:13.747Z,6.78
2017-09-19T20:26:40.531Z,9.85
2017-09-19T20:29:06.685Z,126.70
2017-09-19T20:31:33.150Z,39.33
2017-09-19T20:33:59.994Z,41.30
2017-09-19T20:36:26.087Z,134.90
2017-09-19T20:38:52.152Z,71.47
2017-09-19T20:41:18.982Z,83.62
2017-09-19T20:43:45.480Z,93.82
2017-09-19T20:46:11.676Z,8.20
2017-09-19T20:48:37.755Z,3.50
2017-09-19T20:51:04.815Z,6.37
2017-09-19T20:53:30.916Z,6.10
2017-09-19T20:55:57.675Z,4.28
2017-09-19T20:58:24.524Z,10.30
2017-09-19T21:00:50.542Z,5.40
2017-09-19T21:03:22.846Z,6.87
2017-09-19T21:05:55.298Z,4.45
2017-09-19T21:08:27.396Z,6.30
2017-09-19T21:10:59.728Z,5.80
2017-09-19T21:13:32.978Z,4.97
2017-09-19T21:16:05.114Z,3.60
2017-09-19T21:18:37.156Z,3.67
2017-09-19T21:21:03.244Z,3.40
2017-09-19T21:23:30.375Z,5.45
2017-09-19T21:25:56.398Z,6.30
2017-09-19T21:28:23.248Z,4.70
2017-09-19T21:30:50.221Z,10.05
2017-09-19T21:33:16.231Z,5.20
2017-09-19T21:35:42.250Z,7.53
2017-09-19T21:38:09.028Z,5.80
2017-09-19T21:40:35.043Z,5.75
2017-09-19T21:43:01.059Z,5.97
2017-09-19T21:45:27.255Z,13.95
2017-09-19T21:47:54.011Z,45.75
2017-09-19T21:50:20.150Z,62.60
2017-09-19T21:52:46.471Z,31.23
2017-09-19T21:55:12.496Z,7.20
2017-09-19T21:57:38.528Z,5.53
2017-09-19T22:00:05.051Z,7.32
2017-09-19T22:02:31.074Z,7.40
2017-09-19T22:04:57.086Z,7.57
2017-09-19T22:07:23.103Z,7.32
2017-09-19T22:09:49.131Z,6.30
2017-09-19T22:12:15.160Z,5.97
2017-09-19T22:14:41.178Z,7.22
2017-09-19T22:17:07.246Z,6.47
2017-09-19T22:19:33.258Z,6.03
2017-09-19T22:21:59.285Z,8.85
2017-09-19T22:24:26.087Z,6.43
2017-09-19T22:26:52.101Z,7.50
2017-09-19T22:29:18.119Z,8.30
2017-09-19T22:31:44.299Z,9.27
2017-09-19T22:34:10.302Z,6.83
2017-09-19T22:36:36.322Z,8.68
2017-09-19T22:39:02.392Z,9.30
2017-09-19T22:41:28.429Z,9.23
2017-09-19T22:43:54.450Z,8.30
2017-09-19T22:46:20.499Z,10.05
2017-09-19T22:48:46.510Z,9.43
2017-09-19T22:51:12.532Z,7.70
2017-09-19T22:53:38.850Z,11.05
2017-09-19T22:56:04.866Z,10.10
2017-09-19T22:58:30.870Z,12.90
2017-09-19T23:00:58.512Z,8.48
2017-09-19T23:03:25.266Z,9.70
2017-09-19T23:05:53.103Z,12.45
2017-09-19T23:08:19.375Z,10.10
2017-09-19T23:10:45.383Z,9.55
2017-09-19T23:13:11.397Z,11.85
2017-09-19T23:15:38.183Z,10.43
2017-09-19T23:18:04.215Z,9.55
2017-09-19T23:20:30.218Z,9.38
2017-09-19T23:22:56.531Z,13.25
2017-09-19T23:25:22.543Z,8.80
2017-09-19T23:27:48.573Z,9.50
2017-09-19T23:30:14.606Z,14.43
2017-09-19T23:32:40.642Z,11.60
2017-09-19T23:35:06.678Z,13.35
2017-09-19T23:37:32.962Z,11.12
2017-09-19T23:39:59.003Z,12.13
2017-09-19T23:42:25.026Z,16.60
2017-09-19T23:44:51.079Z,11.35
2017-09-19T23:47:17.103Z,9.85
2017-09-19T23:49:43.111Z,13.17
2017-09-19T23:52:09.127Z,12.15
2017-09-19T23:54:35.135Z,13.60
2017-09-19T23:57:01.355Z,11.00
2017-09-19T23:59:27.382Z,12.07
